createdAt,value
2019-03-18T00:01:49.695Z,1.67
2019-03-18T00:04:19.066Z,1.90
2019-03-18T00:06:48.437Z,2.00
2019-03-18T00:09:17.806Z,2.00
2019-03-18T00:11:47.143Z,2.10
2019-03-18T00:14:17.874Z,2.20
2019-03-18T00:16:47.227Z,1.93
2019-03-18T00:19:16.589Z,1.80
2019-03-18T00:21:45.937Z,2.17
2019-03-18T00:24:15.295Z,2.10
2019-03-18T00:26:44.645Z,1.90
2019-03-18T00:29:13.983Z,2.10
2019-03-18T00:31:43.336Z,2.20
2019-03-18T00:34:12.684Z,2.27
2019-03-18T00:36:42.046Z,2.20
2019-03-18T00:39:11.388Z,1.97
2019-03-18T00:41:40.732Z,1.90
2019-03-18T00:44:10.090Z,1.87
2019-03-18T00:46:39.474Z,1.50
2019-03-18T00:49:08.888Z,1.60
2019-03-18T00:51:38.232Z,1.60
2019-03-18T00:54:07.683Z,1.70
2019-03-18T00:56:37.019Z,1.80
2019-03-18T00:59:06.448Z,2.00
2019-03-18T01:01:36.286Z,1.77
2019-03-18T01:04:05.719Z,1.47
2019-03-18T01:06:35.074Z,1.70
2019-03-18T01:09:06.297Z,1.80
2019-03-18T01:11:35.734Z,1.93
2019-03-18T01:14:05.152Z,1.83
2019-03-18T01:16:34.482Z,1.83
2019-03-18T01:19:03.829Z,1.60
2019-03-18T01:21:33.173Z,1.97
2019-03-18T01:24:02.528Z,1.63
2019-03-18T01:26:31.874Z,1.80
2019-03-18T01:29:01.214Z,1.60
2019-03-18T01:31:30.558Z,1.70
2019-03-18T01:33:59.930Z,2.00
2019-03-18T01:36:29.289Z,1.80
2019-03-18T01:38:58.650Z,1.60
2019-03-18T01:41:27.996Z,1.60
2019-03-18T01:43:57.363Z,1.40
2019-03-18T01:46:26.701Z,1.50
2019-03-18T01:48:56.051Z,1.73
2019-03-18T01:51:25.397Z,1.73
2019-03-18T01:53:54.746Z,1.57
2019-03-18T01:56:24.155Z,1.60
2019-03-18T01:58:53.504Z,1.90
2019-03-18T02:01:22.854Z,1.50
2019-03-18T02:03:52.203Z,1.80
2019-03-18T02:06:21.549Z,2.17
2019-03-18T02:08:50.888Z,1.93
2019-03-18T02:11:20.231Z,1.60
2019-03-18T02:13:49.583Z,1.50
2019-03-18T02:16:18.934Z,1.50
2019-03-18T02:18:48.295Z,1.70
2019-03-18T02:21:17.703Z,1.50
2019-03-18T02:23:47.039Z,2.10
2019-03-18T02:26:22.497Z,1.70
2019-03-18T02:28:51.851Z,1.77
2019-03-18T02:31:21.192Z,1.70
2019-03-18T02:33:50.568Z,1.80
2019-03-18T02:36:19.915Z,1.70
2019-03-18T02:38:49.262Z,1.60
2019-03-18T02:41:18.599Z,1.80
2019-03-18T02:43:47.949Z,1.57
2019-03-18T02:46:17.281Z,1.60
2019-03-18T02:48:46.612Z,1.60
2019-03-18T02:51:16.339Z,1.50
2019-03-18T02:53:45.685Z,1.60
2019-03-18T02:56:15.027Z,1.70
2019-03-18T02:58:44.370Z,1.40
2019-03-18T03:01:13.721Z,1.50
2019-03-18T03:03:43.065Z,1.67
2019-03-18T03:06:12.438Z,1.50
2019-03-18T03:08:41.760Z,1.47
2019-03-18T03:11:11.106Z,1.60
2019-03-18T03:13:40.433Z,1.40
2019-03-18T03:16:20.389Z,1.40
2019-03-18T03:18:40.803Z,1.60
2019-03-18T03:21:10.133Z,1.73
2019-03-18T03:23:39.467Z,1.20
2019-03-18T03:26:08.813Z,1.63
2019-03-18T03:28:38.150Z,1.60
2019-03-18T03:31:07.511Z,1.60
2019-03-18T03:33:36.857Z,1.70
2019-03-18T03:36:06.184Z,1.57
2019-03-18T03:38:35.530Z,1.80
2019-03-18T03:41:04.910Z,1.60
2019-03-18T03:43:34.213Z,1.50
2019-03-18T03:46:03.670Z,1.40
2019-03-18T03:48:32.991Z,1.60
2019-03-18T03:51:02.348Z,1.60
2019-03-18T03:53:31.697Z,1.57
2019-03-18T03:56:01.051Z,1.33
2019-03-18T03:58:30.610Z,1.60
2019-03-18T04:01:00.020Z,1.60
2019-03-18T04:03:38.118Z,1.70
2019-03-18T04:06:00.463Z,1.43
2019-03-18T04:08:29.789Z,1.70
2019-03-18T04:10:59.201Z,1.60
2019-03-18T04:13:28.541Z,1.73
2019-03-18T04:15:57.898Z,1.60
2019-03-18T04:18:27.239Z,1.80
2019-03-18T04:20:56.592Z,1.60
2019-03-18T04:23:25.941Z,1.77
2019-03-18T04:25:55.301Z,2.07
2019-03-18T04:28:24.724Z,1.97
2019-03-18T04:30:54.072Z,1.60
2019-03-18T04:33:23.406Z,1.80
2019-03-18T04:35:52.826Z,1.70
2019-03-18T04:38:22.171Z,1.60
2019-03-18T04:40:51.524Z,1.50
2019-03-18T04:43:20.860Z,1.50
2019-03-18T04:45:50.192Z,1.73
2019-03-18T04:48:19.548Z,1.90
2019-03-18T04:50:48.893Z,1.70
2019-03-18T04:53:18.240Z,1.80
2019-03-18T04:55:47.563Z,1.70
2019-03-18T04:58:16.915Z,2.13
2019-03-18T05:00:46.256Z,1.70
2019-03-18T05:03:15.609Z,1.60
2019-03-18T05:05:44.955Z,1.70
2019-03-18T05:08:14.282Z,1.60
2019-03-18T05:10:43.646Z,1.57
2019-03-18T05:13:12.968Z,1.73
2019-03-18T05:15:42.385Z,1.80
2019-03-18T05:18:11.717Z,1.60
2019-03-18T05:20:41.054Z,1.70
2019-03-18T05:23:10.465Z,1.80
2019-03-18T05:25:39.793Z,2.10
2019-03-18T05:28:09.187Z,1.90
2019-03-18T05:30:38.530Z,1.80
2019-03-18T05:33:07.907Z,2.20
2019-03-18T05:35:37.258Z,1.77
2019-03-18T05:38:06.584Z,1.80
2019-03-18T05:40:35.934Z,1.90
2019-03-18T05:43:05.369Z,1.97
2019-03-18T05:45:34.775Z,2.00
2019-03-18T05:48:04.113Z,2.20
2019-03-18T05:50:33.465Z,1.87
2019-03-18T05:53:02.815Z,1.83
2019-03-18T05:55:32.174Z,2.17
2019-03-18T05:58:01.528Z,2.30
2019-03-18T06:00:30.877Z,2.27
2019-03-18T06:03:00.316Z,2.13
2019-03-18T06:05:29.660Z,2.40
2019-03-18T06:07:59.006Z,2.50
2019-03-18T06:10:28.411Z,2.60
2019-03-18T06:12:57.748Z,2.70
2019-03-18T06:15:27.087Z,2.57
2019-03-18T06:17:56.432Z,2.90
2019-03-18T06:20:25.774Z,2.90
2019-03-18T06:22:55.211Z,3.10
2019-03-18T06:25:24.611Z,2.80
2019-03-18T06:27:53.955Z,2.77
2019-03-18T06:30:23.284Z,2.83
2019-03-18T06:32:52.628Z,2.60
2019-03-18T06:35:21.964Z,2.50
2019-03-18T06:37:51.315Z,2.47
2019-03-18T06:40:20.673Z,2.30
2019-03-18T06:42:50.013Z,3.07
2019-03-18T06:45:19.347Z,2.80
2019-03-18T06:47:48.717Z,3.10
2019-03-18T06:50:18.111Z,3.20
2019-03-18T06:52:47.457Z,3.73
2019-03-18T06:55:16.792Z,3.90
2019-03-18T06:57:46.144Z,3.60
2019-03-18T07:00:15.557Z,3.40
2019-03-18T07:02:44.923Z,3.70
2019-03-18T07:05:14.551Z,3.50
2019-03-18T07:07:43.881Z,3.67
2019-03-18T07:10:13.324Z,3.63
2019-03-18T07:12:42.734Z,3.97
2019-03-18T07:15:12.219Z,4.13
2019-03-18T07:17:41.605Z,4.37
2019-03-18T07:20:11.037Z,3.80
2019-03-18T07:22:40.381Z,4.20
2019-03-18T07:25:10.168Z,3.57
2019-03-18T07:27:39.504Z,4.33
2019-03-18T07:30:09.134Z,3.77
2019-03-18T07:32:38.484Z,3.60
2019-03-18T07:35:07.971Z,3.87
2019-03-18T07:37:37.317Z,3.90
2019-03-18T07:40:07.336Z,4.53
2019-03-18T07:42:36.673Z,4.53
2019-03-18T07:45:06.756Z,4.23
2019-03-18T07:47:36.181Z,4.40
2019-03-18T07:50:06.051Z,4.43
2019-03-18T07:52:35.382Z,4.30
2019-03-18T07:55:05.433Z,4.47
2019-03-18T07:57:34.738Z,4.57
2019-03-18T08:00:04.373Z,4.50
2019-03-18T08:02:33.798Z,4.77
2019-03-18T08:05:03.273Z,4.83
2019-03-18T08:07:32.648Z,4.70
2019-03-18T08:10:01.982Z,4.40
2019-03-18T08:12:32.968Z,4.93
2019-03-18T08:15:02.285Z,4.83
2019-03-18T08:17:31.633Z,3.83
2019-03-18T08:20:03.336Z,4.43
2019-03-18T08:22:32.011Z,4.10
2019-03-18T08:25:01.347Z,3.67
2019-03-18T08:27:30.745Z,3.90
2019-03-18T08:30:00.067Z,3.87
2019-03-18T08:32:46.925Z,3.80
2019-03-18T08:35:16.335Z,4.13
2019-03-18T08:37:45.699Z,3.10
2019-03-18T08:40:15.112Z,2.73
2019-03-18T08:42:44.456Z,2.97
2019-03-18T08:45:13.920Z,2.90
2019-03-18T08:47:43.623Z,3.17
2019-03-18T08:50:13.111Z,2.47
2019-03-18T08:52:42.468Z,3.43
2019-03-18T08:55:11.886Z,2.50
2019-03-18T08:57:41.256Z,2.40
2019-03-18T09:00:11.244Z,2.80
2019-03-18T09:02:40.650Z,2.43
2019-03-18T09:05:10.100Z,2.37
2019-03-18T09:07:39.517Z,2.47
2019-03-18T09:10:09.101Z,1.97
2019-03-18T09:12:38.425Z,2.50
2019-03-18T09:15:07.797Z,2.30
2019-03-18T09:17:37.144Z,2.37
2019-03-18T09:20:08.035Z,2.13
2019-03-18T09:22:37.371Z,2.10
2019-03-18T09:25:06.798Z,1.90
2019-03-18T09:27:36.163Z,2.40
2019-03-18T09:30:05.846Z,1.87
2019-03-18T09:32:35.199Z,2.03
2019-03-18T09:35:04.666Z,2.30
2019-03-18T09:37:34.030Z,2.57
2019-03-18T09:40:03.471Z,2.27
2019-03-18T09:42:32.855Z,1.90
2019-03-18T09:45:02.202Z,1.80
2019-03-18T09:47:31.607Z,1.70
2019-03-18T09:50:00.977Z,1.40
2019-03-18T09:52:30.372Z,1.57
2019-03-18T09:54:59.675Z,1.53
2019-03-18T09:57:29.089Z,1.70
2019-03-18T09:59:58.460Z,1.50
2019-03-18T10:02:29.443Z,1.60
2019-03-18T10:04:58.823Z,1.70
2019-03-18T10:07:28.167Z,1.63
2019-03-18T10:09:57.570Z,1.50
2019-03-18T10:12:26.847Z,2.10
2019-03-18T10:14:56.214Z,1.90
2019-03-18T10:17:25.546Z,1.77
2019-03-18T10:19:54.905Z,1.77
2019-03-18T10:22:24.236Z,1.70
2019-03-18T10:24:53.657Z,1.77
2019-03-18T10:27:23.004Z,1.60
2019-03-18T10:29:52.407Z,1.47
2019-03-18T10:32:21.798Z,1.83
2019-03-18T10:34:51.185Z,1.67
2019-03-18T10:37:20.539Z,1.77
2019-03-18T10:39:49.908Z,1.50
2019-03-18T10:42:19.290Z,1.43
2019-03-18T10:44:48.680Z,1.10
2019-03-18T10:47:18.050Z,1.93
2019-03-18T10:49:47.402Z,1.73
2019-03-18T10:52:16.763Z,1.80
2019-03-18T10:54:46.172Z,1.80
2019-03-18T10:57:15.528Z,1.47
2019-03-18T10:59:44.859Z,1.90
2019-03-18T11:02:14.254Z,1.43
2019-03-18T11:04:43.599Z,1.53
2019-03-18T11:07:12.959Z,2.07
2019-03-18T11:09:42.292Z,1.60
2019-03-18T11:12:11.647Z,1.80
2019-03-18T11:14:40.998Z,1.53
2019-03-18T11:17:10.356Z,1.73
2019-03-18T11:19:39.701Z,1.43
2019-03-18T11:22:09.117Z,1.40
2019-03-18T11:24:38.493Z,1.80
2019-03-18T11:27:07.869Z,2.40
2019-03-18T11:29:37.219Z,1.97
2019-03-18T11:32:06.655Z,2.00
2019-03-18T11:34:36.069Z,1.87
2019-03-18T11:37:05.503Z,1.90
2019-03-18T11:39:34.844Z,2.40
2019-03-18T11:42:04.208Z,1.60
2019-03-18T11:44:33.565Z,1.87
2019-03-18T11:47:02.953Z,1.80
2019-03-18T11:49:39.605Z,2.30
2019-03-18T11:52:03.523Z,2.00
2019-03-18T11:54:32.934Z,1.77
2019-03-18T11:57:02.378Z,2.27
2019-03-18T11:59:31.721Z,2.80
2019-03-18T12:02:01.066Z,1.80
2019-03-18T12:04:32.684Z,2.10
2019-03-18T12:07:01.458Z,1.83
2019-03-18T12:09:30.809Z,1.77
2019-03-18T12:12:00.238Z,1.57
2019-03-18T12:14:29.577Z,1.70
2019-03-18T12:16:59.228Z,2.10
2019-03-18T12:19:28.870Z,1.60
2019-03-18T12:21:58.627Z,1.70
2019-03-18T12:24:28.441Z,1.50
2019-03-18T12:26:57.834Z,1.60
2019-03-18T12:29:27.492Z,1.80
2019-03-18T12:31:56.907Z,1.87
2019-03-18T12:34:26.237Z,2.20
2019-03-18T12:36:55.581Z,1.90
2019-03-18T12:39:25.017Z,1.87
2019-03-18T12:41:54.312Z,1.70
2019-03-18T12:44:23.651Z,1.50
2019-03-18T12:46:53.005Z,1.30
2019-03-18T12:49:22.357Z,1.40
2019-03-18T12:51:51.733Z,1.70
2019-03-18T12:54:21.093Z,1.90
2019-03-18T12:56:50.429Z,1.80
2019-03-18T12:59:19.785Z,1.70
2019-03-18T13:01:49.123Z,1.63
2019-03-18T13:04:18.472Z,1.63
2019-03-18T13:06:47.820Z,1.90
2019-03-18T13:09:17.174Z,1.50
2019-03-18T13:11:46.506Z,1.30
2019-03-18T13:14:15.965Z,1.57
2019-03-18T13:16:45.323Z,1.50
2019-03-18T13:19:14.749Z,1.53
2019-03-18T13:21:44.104Z,1.50
2019-03-18T13:24:13.448Z,1.50
2019-03-18T13:26:42.806Z,1.40
2019-03-18T13:29:12.150Z,1.40
2019-03-18T13:31:41.495Z,1.10
2019-03-18T13:34:10.850Z,1.60
2019-03-18T13:36:40.187Z,1.30
2019-03-18T13:39:09.863Z,1.50
2019-03-18T13:41:39.381Z,1.33
2019-03-18T13:44:08.715Z,1.63
2019-03-18T13:46:38.060Z,1.80
2019-03-18T13:49:07.478Z,1.60
2019-03-18T13:51:36.894Z,1.50
2019-03-18T13:54:06.354Z,1.57
2019-03-18T13:56:35.734Z,1.70
2019-03-18T13:59:05.185Z,1.70
2019-03-18T14:01:34.531Z,1.70
2019-03-18T14:04:03.964Z,2.07
2019-03-18T14:06:33.308Z,2.00
2019-03-18T14:09:02.658Z,2.03
2019-03-18T14:11:31.989Z,1.90
2019-03-18T14:14:01.432Z,1.70
2019-03-18T14:16:30.776Z,2.00
2019-03-18T14:19:00.130Z,2.00
2019-03-18T14:21:33.480Z,1.87
2019-03-18T14:24:00.573Z,2.00
2019-03-18T14:26:29.908Z,1.60
2019-03-18T14:28:59.270Z,1.73
2019-03-18T14:31:28.640Z,1.37
2019-03-18T14:33:58.048Z,1.83
2019-03-18T14:36:27.408Z,1.73
2019-03-18T14:38:56.761Z,1.70
2019-03-18T14:41:26.127Z,1.67
2019-03-18T14:43:55.530Z,1.70
2019-03-18T14:46:25.303Z,1.67
2019-03-18T14:48:54.929Z,1.20
2019-03-18T14:51:24.738Z,1.63
2019-03-18T14:53:54.405Z,1.83
2019-03-18T14:56:24.099Z,1.80
2019-03-18T14:58:53.873Z,1.50
2019-03-18T15:01:23.656Z,1.60
2019-03-18T15:03:53.295Z,1.53
2019-03-18T15:06:22.936Z,1.83
2019-03-18T15:08:52.637Z,1.73
2019-03-18T15:11:22.438Z,1.60
2019-03-18T15:13:52.085Z,1.43
2019-03-18T15:16:21.804Z,1.50
2019-03-18T15:18:51.510Z,1.50
2019-03-18T15:21:21.127Z,1.50
2019-03-18T15:23:50.787Z,1.70
2019-03-18T15:26:20.569Z,2.03
2019-03-18T15:28:50.312Z,1.70
2019-03-18T15:31:20.055Z,1.43
2019-03-18T15:33:49.707Z,1.40
2019-03-18T15:36:19.061Z,1.30
2019-03-18T15:38:48.431Z,1.60
2019-03-18T15:41:17.849Z,1.53
2019-03-18T15:43:47.207Z,1.50
2019-03-18T15:46:16.616Z,1.83
2019-03-18T15:48:45.889Z,1.60
2019-03-18T15:51:15.244Z,1.50
2019-03-18T15:53:44.635Z,1.80
2019-03-18T15:56:13.967Z,1.30
2019-03-18T15:58:43.365Z,1.50
2019-03-18T16:01:12.652Z,1.57
2019-03-18T16:03:42.076Z,1.80
2019-03-18T16:06:11.415Z,1.40
2019-03-18T16:08:40.843Z,1.90
2019-03-18T16:11:10.198Z,1.40
2019-03-18T16:13:39.547Z,1.57
2019-03-18T16:16:10.557Z,1.40
2019-03-18T16:18:39.907Z,1.50
2019-03-18T16:21:09.239Z,1.87
2019-03-18T16:23:38.592Z,1.90
2019-03-18T16:26:07.939Z,1.73
2019-03-18T16:28:37.302Z,1.80
2019-03-18T16:31:06.636Z,1.63
2019-03-18T16:33:35.993Z,2.00
2019-03-18T16:36:05.425Z,1.57
2019-03-18T16:38:34.777Z,1.47
2019-03-18T16:41:04.135Z,1.60
2019-03-18T16:43:33.469Z,2.13
2019-03-18T16:46:03.109Z,1.60
2019-03-18T16:48:32.451Z,1.87
2019-03-18T16:51:01.811Z,1.70
2019-03-18T16:53:31.168Z,2.10
2019-03-18T16:56:00.513Z,1.63
2019-03-18T16:58:29.857Z,1.70
2019-03-18T17:00:59.292Z,1.50
2019-03-18T17:03:28.632Z,1.80
2019-03-18T17:05:58.072Z,2.03
2019-03-18T17:08:27.426Z,2.20
2019-03-18T17:10:56.778Z,2.10
2019-03-18T17:13:26.110Z,2.10
2019-03-18T17:15:55.464Z,2.03
2019-03-18T17:18:24.820Z,2.10
2019-03-18T17:20:54.167Z,2.03
2019-03-18T17:23:23.531Z,2.10
2019-03-18T17:25:52.947Z,2.00
2019-03-18T17:28:22.344Z,2.17
2019-03-18T17:30:51.658Z,2.20
2019-03-18T17:33:21.006Z,2.10
2019-03-18T17:35:50.357Z,2.40
2019-03-18T17:38:19.781Z,1.77
2019-03-18T17:40:49.136Z,2.13
2019-03-18T17:43:18.472Z,1.90
2019-03-18T17:45:47.823Z,1.90
2019-03-18T17:48:17.184Z,1.83
2019-03-18T17:50:46.526Z,2.27
2019-03-18T17:53:15.987Z,2.10
2019-03-18T17:55:45.395Z,1.97
2019-03-18T17:58:14.750Z,2.03
2019-03-18T18:00:46.848Z,2.20
2019-03-18T18:03:16.207Z,1.87
2019-03-18T18:05:45.571Z,2.33
2019-03-18T18:08:14.911Z,3.20
2019-03-18T18:10:44.340Z,2.63
2019-03-18T18:13:13.692Z,2.80
2019-03-18T18:15:43.048Z,3.93
2019-03-18T18:18:12.434Z,3.40
2019-03-18T18:20:41.856Z,4.13
2019-03-18T18:23:14.712Z,3.57
2019-03-18T18:25:42.250Z,3.03
2019-03-18T18:28:11.611Z,3.37
2019-03-18T18:30:40.955Z,3.70
2019-03-18T18:33:10.304Z,3.10
2019-03-18T18:35:39.644Z,3.17
2019-03-18T18:38:09.080Z,3.00
2019-03-18T18:40:38.337Z,3.20
2019-03-18T18:43:07.680Z,3.63
2019-03-18T18:45:37.024Z,5.97
2019-03-18T18:48:06.357Z,5.17
2019-03-18T18:50:37.572Z,4.83
2019-03-18T18:53:06.906Z,4.97
2019-03-18T18:55:36.269Z,5.00
2019-03-18T18:58:05.635Z,4.73
2019-03-18T19:00:34.994Z,5.10
2019-03-18T19:03:06.545Z,7.83
2019-03-18T19:05:38.253Z,4.50
2019-03-18T19:08:07.628Z,4.03
2019-03-18T19:10:39.382Z,4.00
2019-03-18T19:13:08.737Z,3.73
2019-03-18T19:15:38.289Z,3.37
2019-03-18T19:18:07.659Z,3.20
2019-03-18T19:20:37.011Z,3.17
2019-03-18T19:23:06.434Z,3.17
2019-03-18T19:25:35.813Z,3.10
2019-03-18T19:28:05.524Z,3.10
2019-03-18T19:30:34.875Z,4.27
2019-03-18T19:33:04.228Z,4.37
2019-03-18T19:35:33.576Z,3.30
2019-03-18T19:38:05.764Z,4.83
2019-03-18T19:40:35.915Z,4.10
2019-03-18T19:43:05.335Z,3.00
2019-03-18T19:45:34.702Z,3.80
2019-03-18T19:48:04.043Z,6.50
2019-03-18T19:50:36.162Z,4.47
2019-03-18T19:53:05.656Z,4.63
2019-03-18T19:55:35.016Z,5.67
2019-03-18T19:58:04.461Z,4.30
2019-03-18T20:00:34.054Z,4.53
2019-03-18T20:03:03.490Z,4.03
2019-03-18T20:05:32.874Z,3.83
2019-03-18T20:08:02.626Z,4.17
2019-03-18T20:10:31.963Z,4.87
2019-03-18T20:13:01.311Z,5.13
2019-03-18T20:15:30.936Z,4.23
2019-03-18T20:18:00.561Z,5.13
2019-03-18T20:20:29.938Z,5.27
2019-03-18T20:22:59.321Z,4.67
2019-03-18T20:25:28.695Z,4.50
2019-03-18T20:27:58.109Z,4.50
2019-03-18T20:30:27.461Z,4.93
2019-03-18T20:32:56.955Z,4.23
2019-03-18T20:35:26.416Z,3.70
2019-03-18T20:37:55.849Z,4.40
2019-03-18T20:40:25.282Z,4.83
2019-03-18T20:42:54.683Z,5.00
2019-03-18T20:45:24.129Z,5.80
2019-03-18T20:47:53.531Z,5.33
2019-03-18T20:50:23.170Z,4.70
2019-03-18T20:52:52.987Z,5.40
2019-03-18T20:55:22.420Z,4.67
2019-03-18T20:57:51.764Z,5.20
2019-03-18T21:00:21.308Z,5.23
2019-03-18T21:02:50.778Z,5.30
2019-03-18T21:05:20.194Z,5.07
2019-03-18T21:07:49.742Z,6.20
2019-03-18T21:10:19.134Z,5.37
2019-03-18T21:12:48.522Z,4.50
2019-03-18T21:15:18.089Z,6.00
2019-03-18T21:17:47.617Z,5.50
2019-03-18T21:20:16.979Z,5.07
2019-03-18T21:22:46.413Z,4.80
2019-03-18T21:25:15.868Z,5.10
2019-03-18T21:27:45.214Z,5.50
2019-03-18T21:30:14.751Z,5.17
2019-03-18T21:32:44.121Z,5.63
2019-03-18T21:35:13.632Z,7.33
2019-03-18T21:37:42.981Z,6.53
2019-03-18T21:40:12.825Z,6.17
2019-03-18T21:42:42.140Z,5.13
2019-03-18T21:45:13.922Z,5.13
2019-03-18T21:47:43.264Z,4.60
2019-03-18T21:50:12.861Z,3.93
2019-03-18T21:52:42.257Z,3.80
2019-03-18T21:55:11.736Z,4.53
2019-03-18T21:57:41.138Z,4.00
2019-03-18T22:00:11.904Z,4.00
2019-03-18T22:02:41.322Z,4.00
2019-03-18T22:05:10.733Z,3.73
2019-03-18T22:07:40.067Z,3.40
2019-03-18T22:10:10.738Z,2.90
2019-03-18T22:12:40.094Z,3.57
2019-03-18T22:15:10.545Z,3.57
2019-03-18T22:17:39.871Z,3.43
2019-03-18T22:20:11.365Z,3.30
2019-03-18T22:22:40.709Z,3.27
2019-03-18T22:25:10.117Z,3.17
2019-03-18T22:27:39.525Z,3.00
2019-03-18T22:30:09.164Z,2.90
2019-03-18T22:32:38.514Z,3.30
2019-03-18T22:35:08.092Z,3.23
2019-03-18T22:37:37.426Z,2.83
2019-03-18T22:40:07.172Z,2.87
2019-03-18T22:42:36.504Z,3.07
2019-03-18T22:45:06.398Z,3.10
2019-03-18T22:47:35.757Z,2.70
2019-03-18T22:50:06.179Z,3.20
2019-03-18T22:52:35.669Z,3.07
2019-03-18T22:55:06.037Z,2.70
2019-03-18T22:57:35.422Z,3.20
2019-03-18T23:00:09.101Z,2.90
2019-03-18T23:02:38.435Z,2.87
2019-03-18T23:05:07.960Z,2.73
2019-03-18T23:07:37.297Z,3.17
2019-03-18T23:10:06.748Z,2.63
2019-03-18T23:12:36.073Z,3.37
2019-03-18T23:15:05.756Z,2.70
2019-03-18T23:17:35.095Z,2.90
2019-03-18T23:20:04.627Z,2.80
2019-03-18T23:22:34.032Z,2.97
2019-03-18T23:25:07.635Z,2.80
2019-03-18T23:27:34.568Z,2.60
2019-03-18T23:30:04.018Z,2.93
2019-03-18T23:32:33.366Z,3.07
2019-03-18T23:35:02.730Z,2.67
2019-03-18T23:37:32.083Z,2.50
2019-03-18T23:40:01.421Z,3.20
2019-03-18T23:42:30.744Z,3.53
2019-03-18T23:45:00.337Z,2.70
2019-03-18T23:47:29.642Z,2.87
2019-03-18T23:49:58.956Z,3.37
2019-03-18T23:52:28.295Z,3.13
2019-03-18T23:54:57.648Z,4.10
2019-03-18T23:57:26.983Z,3.67
2019-03-18T23:59:56.342Z,3.60
